Time;durP1;ratioP1;P1;durP2;ratioP2;P2;SDS_P1;SDS_P2;PMS_P1;PMS_P2;Temp;Humidity;BMP_temperature;BMP_pressure;BME280_temperature;BME280_humidity;BME280_pressure;Samples;Min_cycle;Max_cycle;Signal;HPM_P1;HPM_P2
2023/09/03 00:01:26;;;;;;;10.10;4.83;;;19.10;28.30;;;;;;4983716;28;20476;-65
2023/09/03 00:03:52;;;;;;;9.80;5.67;;;19.10;28.50;;;;;;4987957;28;20488;-65
2023/09/03 00:06:19;;;;;;;6.90;4.50;;;19.00;28.90;;;;;;4986877;28;20467;-64
2023/09/03 00:08:46;;;;;;;7.20;4.40;;;19.00;28.70;;;;;;4987333;28;20475;-64
2023/09/03 00:11:13;;;;;;;8.00;5.27;;;18.90;28.60;;;;;;4984493;28;20807;-64
2023/09/03 00:13:40;;;;;;;7.43;4.87;;;18.90;28.60;;;;;;4983932;28;20996;-64
2023/09/03 00:16:08;;;;;;;8.70;5.33;;;18.90;28.80;;;;;;4985035;28;20465;-65
2023/09/03 00:18:34;;;;;;;10.07;5.97;;;18.90;28.80;;;;;;4986159;28;20472;-65
2023/09/03 00:21:05;;;;;;;7.70;5.53;;;18.90;28.80;;;;;;4984116;28;20484;-65
2023/09/03 00:23:32;;;;;;;9.37;5.97;;;18.90;28.80;;;;;;4986898;28;20997;-65
2023/09/03 00:25:59;;;;;;;7.90;5.23;;;18.80;29.10;;;;;;4986373;28;20468;-64
2023/09/03 00:28:26;;;;;;;10.03;6.97;;;18.80;29.30;;;;;;4981335;28;20489;-65
2023/09/03 00:31:03;;;;;;;8.77;5.60;;;18.80;29.30;;;;;;4984538;28;20481;-65
2023/09/03 00:33:32;;;;;;;10.63;6.40;;;18.80;29.60;;;;;;4980948;28;20480;-65
2023/09/03 00:36:00;;;;;;;7.83;5.23;;;18.80;29.40;;;;;;4986866;28;21145;-64
2023/09/03 00:38:27;;;;;;;6.80;4.90;;;18.80;29.30;;;;;;4990655;28;20475;-64
2023/09/03 00:40:54;;;;;;;7.10;4.90;;;18.80;29.30;;;;;;4994380;28;20555;-65
2023/09/03 00:43:20;;;;;;;9.17;5.20;;;18.80;29.40;;;;;;4984001;28;20485;-64
2023/09/03 00:45:49;;;;;;;8.87;6.30;;;18.70;29.80;;;;;;4985519;28;20475;-64
2023/09/03 00:48:18;;;;;;;8.80;4.90;;;18.70;30.00;;;;;;4991677;28;20467;-64
2023/09/03 00:50:48;;;;;;;8.10;5.30;;;18.70;29.90;;;;;;4991435;28;20472;-64
2023/09/03 00:53:17;;;;;;;9.73;5.40;;;18.60;29.60;;;;;;4989031;28;20925;-64
2023/09/03 00:55:44;;;;;;;7.50;5.00;;;18.60;29.60;;;;;;4990129;28;20465;-65
2023/09/03 00:58:11;;;;;;;7.37;5.07;;;18.50;29.70;;;;;;4995820;28;20471;-64
2023/09/03 01:00:38;;;;;;;9.03;4.80;;;18.50;29.70;;;;;;4989490;28;20804;-64
2023/09/03 01:03:05;;;;;;;8.03;5.53;;;18.40;30.10;;;;;;4987605;28;20552;-64
2023/09/03 01:05:32;;;;;;;9.70;5.70;;;18.40;30.00;;;;;;4989168;28;20464;-64
2023/09/03 01:08:02;;;;;;;8.50;5.17;;;18.40;30.30;;;;;;4987319;28;20469;-64
2023/09/03 01:10:36;;;;;;;7.83;4.97;;;18.40;30.70;;;;;;4984963;28;20522;-64
2023/09/03 01:13:12;;;;;;;10.63;6.30;;;18.30;31.10;;;;;;4989170;28;20485;-64
2023/09/03 01:15:45;;;;;;;11.57;5.70;;;18.30;31.30;;;;;;4988782;28;20956;-64
2023/09/03 01:18:17;;;;;;;9.47;5.57;;;18.30;31.20;;;;;;4990709;28;20519;-64
2023/09/03 01:20:51;;;;;;;8.10;5.67;;;18.30;31.30;;;;;;4989960;28;20464;-65
2023/09/03 01:23:33;;;;;;;8.00;5.77;;;18.20;31.60;;;;;;4989366;28;22220;-64
2023/09/03 01:26:18;;;;;;;10.73;5.80;;;18.20;32.00;;;;;;4990183;28;20473;-65
2023/09/03 01:28:47;;;;;;;8.93;5.30;;;18.10;32.10;;;;;;4985644;28;20476;-64
2023/09/03 01:31:17;;;;;;;8.43;5.97;;;18.10;32.00;;;;;;4987839;28;20518;-64
2023/09/03 01:33:46;;;;;;;7.77;4.70;;;18.20;32.00;;;;;;4986802;28;20484;-64
2023/09/03 01:36:14;;;;;;;9.90;5.30;;;18.10;32.00;;;;;;4989586;28;20471;-64
2023/09/03 01:38:42;;;;;;;8.50;5.50;;;18.10;32.00;;;;;;4989068;28;20452;-64
2023/09/03 01:41:08;;;;;;;9.50;6.13;;;18.10;32.10;;;;;;4982294;28;20847;-64
2023/09/03 01:43:35;;;;;;;8.67;5.40;;;18.10;32.30;;;;;;4987409;28;20496;-64
2023/09/03 01:46:06;;;;;;;7.03;4.97;;;18.00;32.40;;;;;;4985997;28;20468;-64
2023/09/03 01:48:52;;;;;;;12.83;5.30;;;18.00;32.40;;;;;;4986907;28;20504;-64
2023/09/03 01:51:29;;;;;;;8.17;4.90;;;18.00;32.60;;;;;;4988458;28;20465;-64
2023/09/03 01:54:03;;;;;;;8.10;5.30;;;17.90;32.30;;;;;;4982803;28;20481;-64
2023/09/03 01:56:31;;;;;;;8.80;5.33;;;17.90;32.20;;;;;;4987661;28;20476;-64
2023/09/03 01:59:03;;;;;;;11.43;5.27;;;17.90;32.20;;;;;;4990576;28;20460;-64
2023/09/03 02:01:33;;;;;;;8.80;5.70;;;17.90;32.30;;;;;;4989808;28;21220;-64
2023/09/03 02:04:00;;;;;;;10.00;5.40;;;17.80;32.30;;;;;;4987657;28;20480;-64
2023/09/03 02:06:27;;;;;;;9.67;5.10;;;17.80;32.40;;;;;;4986806;28;20844;-65
2023/09/03 02:08:54;;;;;;;9.30;5.20;;;17.80;32.60;;;;;;4986521;28;20473;-64
2023/09/03 02:11:20;;;;;;;7.90;5.30;;;17.80;32.70;;;;;;4990244;28;21291;-64
2023/09/03 02:13:47;;;;;;;9.90;5.53;;;17.80;32.70;;;;;;4983033;28;20480;-64
2023/09/03 02:16:14;;;;;;;6.70;4.50;;;17.80;32.60;;;;;;4988406;28;20469;-64
2023/09/03 02:18:43;;;;;;;8.40;5.07;;;17.80;32.70;;;;;;4985525;28;20460;-64
2023/09/03 02:21:10;;;;;;;7.90;5.10;;;17.70;32.60;;;;;;4985608;28;20986;-64
2023/09/03 02:23:37;;;;;;;12.13;5.37;;;17.70;32.80;;;;;;4984587;28;20485;-64
2023/09/03 02:26:04;;;;;;;9.17;5.87;;;17.70;32.80;;;;;;5011504;23;20514;-68
2023/09/03 02:28:31;;;;;;;10.50;4.73;;;17.70;32.90;;;;;;5002554;28;20459;-69
2023/09/03 02:30:57;;;;;;;9.27;4.90;;;17.60;32.90;;;;;;5003532;28;20480;-68
2023/09/03 02:33:24;;;;;;;12.90;5.43;;;17.60;32.90;;;;;;5008692;28;20480;-68
2023/09/03 02:35:52;;;;;;;7.63;4.53;;;17.60;32.90;;;;;;5007745;28;20480;-68
2023/09/03 02:38:19;;;;;;;8.60;5.00;;;17.60;32.80;;;;;;5009057;28;20456;-68
2023/09/03 02:40:46;;;;;;;9.13;5.37;;;17.60;33.00;;;;;;5008641;28;20460;-68
2023/09/03 02:43:13;;;;;;;10.13;5.33;;;17.50;32.90;;;;;;5006640;28;20491;-68
2023/09/03 02:45:39;;;;;;;9.77;5.57;;;17.50;33.00;;;;;;5009649;28;20475;-68
2023/09/03 02:48:08;;;;;;;7.60;4.70;;;17.50;32.90;;;;;;5008888;28;20475;-68
2023/09/03 02:50:36;;;;;;;9.00;5.20;;;17.50;33.10;;;;;;5006760;28;20478;-68
2023/09/03 02:53:05;;;;;;;8.70;5.10;;;17.50;33.20;;;;;;5006966;28;20484;-68
2023/09/03 02:55:31;;;;;;;8.40;4.53;;;17.50;33.30;;;;;;5008992;28;20468;-68
2023/09/03 02:57:58;;;;;;;10.30;4.97;;;17.50;33.10;;;;;;5004919;28;20463;-68
2023/09/03 03:00:25;;;;;;;7.60;4.50;;;17.50;33.10;;;;;;5007263;28;20471;-68
2023/09/03 03:02:52;;;;;;;8.10;5.10;;;17.50;33.00;;;;;;5006431;28;20460;-68
2023/09/03 03:05:19;;;;;;;8.43;4.53;;;17.50;33.00;;;;;;5008457;28;20522;-68
2023/09/03 03:07:46;;;;;;;8.37;4.80;;;17.50;33.10;;;;;;5008179;28;20479;-68
2023/09/03 03:10:14;;;;;;;7.13;4.23;;;17.50;33.00;;;;;;5004780;28;20487;-68
2023/09/03 03:12:45;;;;;;;9.80;4.77;;;17.50;33.00;;;;;;5003592;28;20488;-68
2023/09/03 03:15:12;;;;;;;7.57;4.70;;;17.50;33.00;;;;;;5005718;28;20472;-67
2023/09/03 03:17:38;;;;;;;7.37;4.77;;;17.50;32.80;;;;;;5008035;28;20471;-68
2023/09/03 03:20:07;;;;;;;9.07;5.07;;;17.50;32.90;;;;;;5006663;28;20491;-68
2023/09/03 03:22:34;;;;;;;8.27;4.57;;;17.50;33.00;;;;;;5004912;28;20496;-68
2023/09/03 03:25:01;;;;;;;8.50;4.50;;;17.50;32.90;;;;;;5004406;28;20502;-68
2023/09/03 03:27:30;;;;;;;10.23;4.60;;;17.50;32.90;;;;;;5008163;28;20464;-67
2023/09/03 03:29:57;;;;;;;6.80;4.60;;;17.50;33.00;;;;;;5004740;28;20471;-67
2023/09/03 03:32:23;;;;;;;8.37;5.10;;;17.50;32.80;;;;;;5002243;28;20476;-67
2023/09/03 03:34:50;;;;;;;9.33;4.87;;;17.40;32.70;;;;;;5006896;28;20487;-67
2023/09/03 03:37:17;;;;;;;13.80;5.07;;;17.50;32.70;;;;;;5004517;28;20464;-67
2023/09/03 03:39:43;;;;;;;12.97;5.07;;;17.50;32.70;;;;;;5007270;28;20459;-67
2023/09/03 03:42:10;;;;;;;10.80;5.00;;;17.50;32.70;;;;;;5006289;28;20464;-66
2023/09/03 03:44:38;;;;;;;12.73;4.87;;;17.40;32.80;;;;;;5003238;28;20495;-67
2023/09/03 03:47:05;;;;;;;7.23;4.23;;;17.40;32.80;;;;;;5005004;28;20853;-66
2023/09/03 03:49:31;;;;;;;7.70;4.20;;;17.40;32.80;;;;;;5006359;28;20487;-67
2023/09/03 03:51:58;;;;;;;11.37;5.33;;;17.40;32.80;;;;;;5007691;28;20474;-67
2023/09/03 03:54:25;;;;;;;9.90;5.13;;;17.40;32.90;;;;;;5005044;28;20988;-67
2023/09/03 03:56:52;;;;;;;8.70;5.00;;;17.40;33.00;;;;;;5001914;28;20467;-68
2023/09/03 03:59:19;;;;;;;10.80;4.00;;;17.40;33.10;;;;;;5002639;28;20474;-66
2023/09/03 04:01:47;;;;;;;8.40;4.07;;;17.40;33.10;;;;;;5003546;28;20484;-66
2023/09/03 04:04:14;;;;;;;7.53;4.47;;;17.40;33.00;;;;;;5003483;28;20492;-66
2023/09/03 04:06:40;;;;;;;7.50;4.27;;;17.40;33.00;;;;;;5005210;28;20459;-66
2023/09/03 04:09:07;;;;;;;7.67;4.93;;;17.40;33.10;;;;;;5005402;28;20467;-67
2023/09/03 04:11:34;;;;;;;7.20;4.93;;;17.40;33.00;;;;;;5005205;28;20474;-66
2023/09/03 04:14:00;;;;;;;7.87;3.90;;;17.30;33.10;;;;;;4999353;28;20483;-67
2023/09/03 04:16:27;;;;;;;6.20;3.57;;;17.30;32.60;;;;;;4996086;28;20471;-65
2023/09/03 04:18:55;;;;;;;6.77;3.57;;;17.30;32.50;;;;;;5000959;28;20468;-67
2023/09/03 04:21:22;;;;;;;13.23;4.73;;;17.20;32.40;;;;;;5001553;28;20463;-65
2023/09/03 04:23:49;;;;;;;7.30;4.50;;;17.20;32.50;;;;;;5003219;28;20475;-66
2023/09/03 04:26:17;;;;;;;7.73;4.57;;;17.30;32.70;;;;;;5004411;28;21057;-66
2023/09/03 04:28:43;;;;;;;9.67;4.80;;;17.30;32.70;;;;;;5006388;28;20471;-66
2023/09/03 04:31:10;;;;;;;7.50;4.63;;;17.20;32.90;;;;;;5002473;28;20476;-66
2023/09/03 04:33:37;;;;;;;9.00;4.67;;;17.20;32.90;;;;;;5005184;28;20506;-66
2023/09/03 04:36:05;;;;;;;7.63;4.87;;;17.20;33.00;;;;;;5004995;28;20471;-66
2023/09/03 04:38:33;;;;;;;6.97;4.27;;;17.20;33.10;;;;;;5002339;28;20464;-66
2023/09/03 04:41:04;;;;;;;6.83;4.00;;;17.10;33.00;;;;;;5004052;28;20549;-67
2023/09/03 04:43:32;;;;;;;7.30;4.80;;;17.10;33.20;;;;;;5005335;28;20888;-66
2023/09/03 04:45:59;;;;;;;9.13;4.33;;;17.10;33.10;;;;;;5004494;28;20506;-66
2023/09/03 04:48:25;;;;;;;10.50;4.73;;;17.10;33.00;;;;;;5006840;28;20549;-66
2023/09/03 04:50:52;;;;;;;8.60;3.70;;;17.10;33.10;;;;;;5005928;28;20970;-66
2023/09/03 04:53:20;;;;;;;12.93;5.03;;;17.10;33.20;;;;;;5002281;28;20538;-66
2023/09/03 04:55:47;;;;;;;8.17;4.87;;;17.10;33.30;;;;;;5004329;28;20486;-66
2023/09/03 04:58:14;;;;;;;7.57;4.00;;;17.10;33.50;;;;;;5002617;28;20467;-66
2023/09/03 05:00:41;;;;;;;10.03;4.60;;;17.10;33.30;;;;;;5005636;28;20476;-67
2023/09/03 05:03:07;;;;;;;6.50;4.37;;;17.20;33.30;;;;;;5003535;28;20494;-65
2023/09/03 05:05:40;;;;;;;7.90;4.40;;;17.20;33.20;;;;;;5004397;28;20472;-66
2023/09/03 05:08:08;;;;;;;7.70;4.80;;;17.30;33.90;;;;;;5003144;28;20460;-66
2023/09/03 05:10:36;;;;;;;6.70;4.30;;;17.30;33.20;;;;;;4998827;28;20471;-66
2023/09/03 05:13:03;;;;;;;7.20;4.63;;;17.30;33.20;;;;;;5001005;28;20487;-66
2023/09/03 05:15:30;;;;;;;6.07;3.90;;;17.30;33.00;;;;;;5003054;28;20463;-66
2023/09/03 05:17:57;;;;;;;7.20;4.57;;;17.40;32.80;;;;;;5003596;28;20472;-66
2023/09/03 05:20:23;;;;;;;5.73;3.83;;;17.50;32.80;;;;;;5004889;28;20464;-66
2023/09/03 05:22:50;;;;;;;11.10;4.00;;;17.50;32.40;;;;;;5006996;28;20475;-66
2023/09/03 05:25:17;;;;;;;6.97;3.87;;;17.60;32.10;;;;;;5010233;28;20467;-66
2023/09/03 05:27:45;;;;;;;6.00;3.57;;;17.70;32.10;;;;;;5009659;28;20459;-66
2023/09/03 05:30:12;;;;;;;6.17;4.20;;;17.70;32.00;;;;;;5007359;28;20464;-66
2023/09/03 05:32:39;;;;;;;6.80;4.33;;;17.80;31.80;;;;;;5007572;28;20482;-67
2023/09/03 05:35:06;;;;;;;6.67;3.93;;;17.80;31.70;;;;;;5006926;28;20492;-66
2023/09/03 05:37:33;;;;;;;8.23;4.40;;;17.90;31.70;;;;;;5008544;28;20471;-66
2023/09/03 05:40:00;;;;;;;7.50;4.10;;;18.00;31.90;;;;;;5007978;28;20467;-66
2023/09/03 05:42:26;;;;;;;14.00;5.53;;;18.10;32.10;;;;;;5008152;28;20470;-66
2023/09/03 05:44:56;;;;;;;6.47;4.13;;;18.20;32.10;;;;;;5005260;28;20835;-66
2023/09/03 05:47:23;;;;;;;5.30;3.60;;;18.30;32.00;;;;;;5004329;28;20522;-67
2023/09/03 05:49:54;;;;;;;6.50;4.30;;;18.40;31.70;;;;;;5007691;28;20467;-66
2023/09/03 05:52:21;;;;;;;8.53;4.20;;;18.60;31.40;;;;;;5008969;28;20471;-66
2023/09/03 05:54:48;;;;;;;13.23;3.90;;;18.70;30.90;;;;;;5004649;28;20506;-66
2023/09/03 05:57:15;;;;;;;7.83;4.37;;;18.90;30.50;;;;;;5006723;28;20514;-66
2023/09/03 05:59:41;;;;;;;9.87;4.77;;;19.10;30.00;;;;;;5008108;28;20473;-66
2023/09/03 06:02:09;;;;;;;8.60;4.50;;;19.40;29.30;;;;;;4999637;28;20479;-69
2023/09/03 06:04:36;;;;;;;7.80;4.10;;;19.70;29.30;;;;;;5007962;28;20483;-66
2023/09/03 06:07:04;;;;;;;7.53;3.90;;;20.10;27.20;;;;;;5001141;28;20476;-67
2023/09/03 06:09:31;;;;;;;9.83;4.00;;;20.60;25.60;;;;;;5005208;28;20467;-68
2023/09/03 06:11:57;;;;;;;6.47;3.40;;;21.20;24.50;;;;;;5006363;28;21166;-68
2023/09/03 06:14:24;;;;;;;6.10;3.83;;;21.90;21.50;;;;;;5005637;28;20578;-68
2023/09/03 06:16:51;;;;;;;9.00;4.30;;;22.60;19.40;;;;;;4998315;28;20470;-67
2023/09/03 06:19:20;;;;;;;7.70;4.77;;;23.50;17.30;;;;;;5004526;28;20464;-68
2023/09/03 06:21:47;;;;;;;8.17;4.90;;;24.20;15.00;;;;;;5002259;28;20478;-68
2023/09/03 06:24:15;;;;;;;7.87;4.43;;;24.80;13.60;;;;;;5003104;28;20491;-68
2023/09/03 06:26:41;;;;;;;7.03;4.27;;;25.30;12.30;;;;;;5004327;28;20472;-68
2023/09/03 06:29:08;;;;;;;9.67;4.70;;;25.60;11.30;;;;;;5006925;28;20463;-68
2023/09/03 06:31:35;;;;;;;5.80;3.67;;;25.70;10.70;;;;;;5001136;28;21561;-68
2023/09/03 06:34:02;;;;;;;8.13;4.17;;;25.70;10.40;;;;;;5005645;28;20500;-68
2023/09/03 06:36:30;;;;;;;6.07;4.07;;;25.80;10.30;;;;;;5007924;28;20472;-67
2023/09/03 06:38:56;;;;;;;6.53;4.40;;;26.00;10.10;;;;;;5007513;28;20504;-68
2023/09/03 06:41:23;;;;;;;6.20;3.90;;;26.60;9.20;;;;;;5007823;28;20468;-67
2023/09/03 06:43:50;;;;;;;15.27;4.20;;;27.60;7.10;;;;;;5002638;28;20492;-70
2023/09/03 06:46:17;;;;;;;5.47;4.00;;;28.90;4.80;;;;;;5003918;28;20506;-67
2023/09/03 06:48:43;;;;;;;6.73;3.93;;;30.00;2.30;;;;;;5005168;28;20472;-68
2023/09/03 06:51:11;;;;;;;6.67;4.13;;;30.80;1.00;;;;;;5007042;28;20964;-69
2023/09/03 06:53:39;;;;;;;7.00;3.77;;;31.50;1.00;;;;;;5004899;28;20484;-65
2023/09/03 06:56:06;;;;;;;7.20;4.10;;;32.30;1.00;;;;;;5002279;28;20475;-67
2023/09/03 06:58:33;;;;;;;5.30;3.47;;;33.10;1.00;;;;;;5007487;28;20974;-66
2023/09/03 07:01:01;;;;;;;5.73;3.77;;;34.30;1.00;;;;;;5007523;28;20483;-66
2023/09/03 07:03:28;;;;;;;8.30;3.73;;;35.20;1.00;;;;;;5003299;28;20546;-68
2023/09/03 07:05:55;;;;;;;6.40;3.43;;;35.90;1.00;;;;;;5003436;28;20466;-67
2023/09/03 07:08:22;;;;;;;6.43;3.53;;;36.10;1.00;;;;;;5006409;28;20559;-67
2023/09/03 07:10:50;;;;;;;5.63;3.30;;;35.80;1.00;;;;;;5005005;28;21043;-67
2023/09/03 07:13:16;;;;;;;6.90;3.20;;;35.50;1.00;;;;;;5002929;28;20491;-67
2023/09/03 07:15:44;;;;;;;5.67;3.20;;;34.80;1.00;;;;;;5007483;28;21047;-68
2023/09/03 07:18:11;;;;;;;6.87;3.47;;;34.40;1.00;;;;;;5003414;28;20467;-67
2023/09/03 07:20:38;;;;;;;4.37;2.90;;;34.10;1.00;;;;;;5003602;28;20461;-65
2023/09/03 07:23:05;;;;;;;4.57;3.23;;;34.20;1.00;;;;;;5006240;28;20491;-67
2023/09/03 07:25:34;;;;;;;6.50;3.57;;;34.30;1.00;;;;;;5002158;28;20845;-66
2023/09/03 07:28:02;;;;;;;5.60;3.23;;;34.60;1.00;;;;;;5003550;28;20471;-67
2023/09/03 07:30:29;;;;;;;4.67;3.40;;;34.90;1.00;;;;;;5000583;28;20472;-68
2023/09/03 07:32:56;;;;;;;5.10;3.67;;;35.10;1.00;;;;;;5003975;28;20471;-66
2023/09/03 07:35:22;;;;;;;5.43;3.33;;;35.10;1.00;;;;;;5000008;28;22245;-67
2023/09/03 07:37:49;;;;;;;5.90;3.10;;;34.90;1.00;;;;;;4999828;28;20463;-66
2023/09/03 07:40:17;;;;;;;5.70;3.50;;;34.80;1.00;;;;;;5002826;28;20467;-67
2023/09/03 07:42:44;;;;;;;8.40;3.53;;;35.00;1.00;;;;;;5002875;28;20474;-68
2023/09/03 07:45:13;;;;;;;5.87;3.40;;;35.30;1.00;;;;;;5004437;28;20472;-69
2023/09/03 07:47:40;;;;;;;5.57;3.53;;;35.70;1.00;;;;;;5002104;28;20460;-69
2023/09/03 07:50:07;;;;;;;7.10;4.20;;;36.00;1.00;;;;;;5004908;28;20474;-69
2023/09/03 07:52:34;;;;;;;7.90;3.70;;;36.10;1.00;;;;;;5004336;28;20463;-69
2023/09/03 07:55:01;;;;;;;7.77;3.53;;;36.10;1.00;;;;;;5000913;28;20483;-69
2023/09/03 07:57:32;;;;;;;6.37;4.20;;;36.00;1.00;;;;;;5002961;28;20459;-69
2023/09/03 07:59:59;;;;;;;5.37;3.47;;;36.30;1.00;;;;;;5003918;28;20464;-68
2023/09/03 08:02:27;;;;;;;5.40;3.63;;;36.50;1.00;;;;;;5003791;28;20481;-70
2023/09/03 08:04:53;;;;;;;5.80;3.80;;;36.40;1.00;;;;;;5001863;28;20485;-69
2023/09/03 08:07:20;;;;;;;4.93;3.57;;;36.00;1.00;;;;;;4997166;28;20463;-69
2023/09/03 08:09:47;;;;;;;5.07;3.37;;;35.90;1.00;;;;;;5002679;28;20478;-68
2023/09/03 08:12:14;;;;;;;6.17;3.17;;;35.80;1.00;;;;;;5004973;28;20466;-69
2023/09/03 08:14:42;;;;;;;4.97;2.80;;;35.60;1.00;;;;;;5001749;28;20490;-69
2023/09/03 08:17:08;;;;;;;6.43;2.73;;;35.80;1.00;;;;;;5003070;28;20828;-69
2023/09/03 08:19:37;;;;;;;4.30;2.70;;;36.20;1.00;;;;;;5001178;28;20472;-69
2023/09/03 08:22:03;;;;;;;4.73;2.53;;;36.70;1.00;;;;;;5002022;28;20468;-69
2023/09/03 08:24:30;;;;;;;4.23;2.93;;;37.30;1.00;;;;;;5001209;28;20479;-69
2023/09/03 08:26:58;;;;;;;5.70;2.50;;;38.00;1.00;;;;;;4999866;28;20476;-69
2023/09/03 08:29:25;;;;;;;5.53;2.60;;;38.80;1.00;;;;;;5000199;28;21020;-68
2023/09/03 08:31:51;;;;;;;4.60;2.80;;;40.00;1.00;;;;;;4998222;28;20479;-69
2023/09/03 08:34:18;;;;;;;6.87;3.30;;;40.80;1.00;;;;;;4996745;28;20483;-69
2023/09/03 08:36:46;;;;;;;4.50;2.50;;;41.20;1.00;;;;;;5004140;28;20953;-69
2023/09/03 08:39:13;;;;;;;4.83;2.60;;;41.60;1.00;;;;;;4999730;28;20475;-67
2023/09/03 08:41:40;;;;;;;4.40;2.57;;;42.10;1.00;;;;;;5001908;28;20964;-66
2023/09/03 08:44:17;;;;;;;5.30;2.60;;;42.60;1.00;;;;;;5002505;28;20487;-65
2023/09/03 08:46:47;;;;;;;3.80;2.37;;;42.90;1.00;;;;;;5007405;28;20466;-66
2023/09/03 08:49:15;;;;;;;3.90;2.40;;;43.70;1.00;;;;;;5004000;28;20463;-66
2023/09/03 08:51:42;;;;;;;4.37;2.50;;;44.60;1.00;;;;;;5006535;28;20472;-68
2023/09/03 08:54:12;;;;;;;5.00;3.27;;;45.20;1.00;;;;;;5007824;28;20491;-69
2023/09/03 08:56:39;;;;;;;4.90;2.30;;;45.80;1.00;;;;;;5002956;28;20471;-68
2023/09/03 08:59:06;;;;;;;3.87;2.20;;;46.30;1.00;;;;;;5004685;28;20467;-67
2023/09/03 09:01:34;;;;;;;3.90;1.83;;;47.00;1.00;;;;;;5007130;28;20483;-68
2023/09/03 09:04:03;;;;;;;3.97;2.00;;;47.20;1.00;;;;;;5009724;28;20491;-69
2023/09/03 09:06:30;;;;;;;4.27;2.30;;;47.20;1.00;;;;;;5010232;28;20459;-68
2023/09/03 09:08:59;;;;;;;5.83;2.30;;;47.40;1.00;;;;;;5007219;28;20463;-67
2023/09/03 09:11:34;;;;;;;3.90;1.97;;;47.70;1.00;;;;;;5006737;28;20463;-70
2023/09/03 09:14:01;;;;;;;4.40;1.40;;;47.80;1.00;;;;;;5008255;28;20858;-71
2023/09/03 09:16:28;;;;;;;4.53;2.00;;;47.70;1.00;;;;;;5006786;28;20468;-71
2023/09/03 09:18:56;;;;;;;4.23;1.80;;;47.60;1.00;;;;;;4999727;28;20494;-67
2023/09/03 09:21:24;;;;;;;3.20;1.47;;;47.40;1.00;;;;;;5004042;28;20477;-69
2023/09/03 09:23:51;;;;;;;3.97;1.57;;;47.10;1.00;;;;;;5005248;28;20519;-70
2023/09/03 09:26:18;;;;;;;3.47;1.60;;;47.00;1.00;;;;;;5005938;28;20467;-68
2023/09/03 09:29:00;;;;;;;5.50;1.63;;;47.40;1.00;;;;;;5007767;28;20514;-67
2023/09/03 09:31:29;;;;;;;3.73;1.53;;;47.50;1.00;;;;;;5003369;28;20475;-70
2023/09/03 09:33:56;;;;;;;3.30;1.63;;;46.90;1.00;;;;;;5008079;28;20984;-69
2023/09/03 09:36:23;;;;;;;3.80;2.00;;;46.70;1.00;;;;;;5009119;28;21031;-67
2023/09/03 09:38:50;;;;;;;3.40;1.60;;;46.70;1.00;;;;;;5009718;28;20483;-68
2023/09/03 09:41:27;;;;;;;4.07;1.50;;;46.50;1.00;;;;;;5010070;28;20475;-70
2023/09/03 09:43:54;;;;;;;4.63;2.67;;;46.60;1.00;;;;;;5007337;28;20494;-69
2023/09/03 09:46:30;;;;;;;4.37;1.90;;;46.70;1.00;;;;;;5006789;28;20467;-70
2023/09/03 09:48:58;;;;;;;6.63;2.13;;;46.90;1.00;;;;;;5008878;28;20816;-68
2023/09/03 09:51:26;;;;;;;4.90;2.10;;;46.40;1.00;;;;;;5008354;28;20471;-67
2023/09/03 09:53:56;;;;;;;4.03;1.90;;;46.20;1.00;;;;;;5005184;28;20497;-70
2023/09/03 09:56:27;;;;;;;3.70;1.70;;;45.90;1.00;;;;;;5008852;28;20479;-70
2023/09/03 09:58:54;;;;;;;3.73;2.03;;;45.30;1.00;;;;;;5007246;28;21039;-68
2023/09/03 10:03:59;;;;;;;4.80;2.30;;;45.00;1.00;;;;;;4994858;28;20500;-67
2023/09/03 10:06:26;;;;;;;11.10;8.13;;;44.60;1.00;;;;;;5002231;28;20957;-66
2023/09/03 10:08:53;;;;;;;4.47;2.43;;;44.40;1.00;;;;;;5004668;28;20507;-71
2023/09/03 10:11:20;;;;;;;4.20;2.30;;;44.30;1.00;;;;;;5003885;28;20491;-69
2023/09/03 10:13:49;;;;;;;4.07;2.43;;;44.20;1.00;;;;;;4996496;28;20491;-67
2023/09/03 10:16:18;;;;;;;4.10;1.67;;;43.80;1.00;;;;;;5006585;28;20488;-70
2023/09/03 10:18:46;;;;;;;4.13;1.57;;;43.60;1.00;;;;;;5003960;28;20491;-69
2023/09/03 10:21:19;;;;;;;3.27;1.67;;;43.40;1.00;;;;;;5008440;28;20952;-66
2023/09/03 10:23:49;;;;;;;3.90;1.60;;;43.20;1.00;;;;;;5003617;28;20487;-67
2023/09/03 10:26:28;;;;;;;4.00;1.70;;;42.70;1.00;;;;;;5006182;28;20556;-68
2023/09/03 10:29:00;;;;;;;4.33;2.00;;;42.10;1.00;;;;;;5006666;28;20471;-65
2023/09/03 10:31:28;;;;;;;4.80;1.50;;;41.80;1.00;;;;;;5008444;28;20476;-65
2023/09/03 10:33:55;;;;;;;3.70;1.67;;;41.70;1.00;;;;;;5002646;28;21047;-66
2023/09/03 10:36:23;;;;;;;3.70;1.50;;;41.40;1.00;;;;;;5001455;28;20487;-67
2023/09/03 10:38:50;;;;;;;3.10;1.30;;;41.40;1.00;;;;;;5003072;28;20468;-66
2023/09/03 10:41:21;;;;;;;3.20;1.70;;;41.40;1.00;;;;;;5002303;28;20471;-65
2023/09/03 10:43:48;;;;;;;3.60;1.60;;;41.50;1.00;;;;;;5006649;28;20483;-66
2023/09/03 10:46:15;;;;;;;3.30;1.67;;;41.80;1.00;;;;;;5005002;28;20467;-66
2023/09/03 10:48:51;;;;;;;3.67;1.70;;;41.80;1.00;;;;;;5005490;28;20507;-66
2023/09/03 10:51:33;;;;;;;3.43;1.77;;;41.60;1.00;;;;;;5008165;28;20883;-66
2023/09/03 10:54:16;;;;;;;5.10;2.20;;;41.40;1.00;;;;;;5006855;28;20487;-66
2023/09/03 10:57:16;;;;;;;3.30;1.30;;;41.20;1.00;;;;;;5005791;28;20854;-69
2023/09/03 11:00:21;;;;;;;3.60;1.53;;;41.30;1.00;;;;;;5006496;28;20491;-69
2023/09/03 11:02:48;;;;;;;3.83;1.20;;;41.40;1.00;;;;;;5007179;28;20917;-68
2023/09/03 11:05:28;;;;;;;3.67;1.80;;;41.10;1.00;;;;;;5007397;28;20474;-69
2023/09/03 11:08:29;;;;;;;3.60;1.30;;;40.40;1.00;;;;;;5006288;28;20468;-68
2023/09/03 11:10:57;;;;;;;3.37;1.60;;;39.50;1.00;;;;;;5003240;28;20984;-66
2023/09/03 11:13:24;;;;;;;3.10;1.30;;;38.90;1.00;;;;;;5008995;28;20494;-69
2023/09/03 11:15:55;;;;;;;3.53;1.00;;;38.20;1.00;;;;;;5006311;28;20498;-66
2023/09/03 11:18:22;;;;;;;3.57;1.00;;;37.70;1.00;;;;;;5001867;28;20475;-68
2023/09/03 11:20:50;;;;;;;4.30;1.40;;;37.10;1.00;;;;;;5003575;28;20467;-67
2023/09/03 11:23:17;;;;;;;4.83;1.50;;;36.50;1.00;;;;;;5003061;28;20489;-66
2023/09/03 11:25:46;;;;;;;3.50;1.40;;;36.00;1.00;;;;;;5003655;28;20478;-65
2023/09/03 11:28:14;;;;;;;3.70;1.57;;;35.70;1.00;;;;;;5005988;28;21184;-66
2023/09/03 11:30:41;;;;;;;3.43;1.30;;;35.50;1.00;;;;;;5005187;28;21002;-66
2023/09/03 11:33:09;;;;;;;4.50;1.60;;;35.20;1.00;;;;;;5002255;28;20786;-66
2023/09/03 11:35:42;;;;;;;3.57;1.40;;;34.90;1.00;;;;;;5002360;28;21034;-67
2023/09/03 11:38:09;;;;;;;3.50;1.20;;;34.60;1.00;;;;;;5000796;28;20460;-69
2023/09/03 11:40:36;;;;;;;3.17;1.23;;;34.30;1.00;;;;;;5004477;28;20463;-69
2023/09/03 11:43:07;;;;;;;3.77;1.40;;;34.10;1.00;;;;;;5007151;28;20487;-69
2023/09/03 11:45:34;;;;;;;3.73;1.20;;;33.70;1.00;;;;;;5005080;28;20487;-69
2023/09/03 11:48:06;;;;;;;3.90;1.40;;;33.30;1.00;;;;;;5004804;28;20587;-69
2023/09/03 11:50:33;;;;;;;4.00;1.20;;;33.00;1.00;;;;;;5006519;28;20566;-68
2023/09/03 11:53:00;;;;;;;3.50;1.00;;;32.80;1.00;;;;;;5003283;28;20457;-68
2023/09/03 11:55:29;;;;;;;3.30;1.03;;;32.70;1.00;;;;;;4997366;28;20476;-68
2023/09/03 11:57:57;;;;;;;3.37;1.00;;;32.60;1.00;;;;;;5001056;28;20467;-68
2023/09/03 12:00:25;;;;;;;3.60;1.00;;;32.60;1.00;;;;;;4998620;28;20976;-68
2023/09/03 12:02:53;;;;;;;3.77;1.00;;;32.50;1.00;;;;;;5004451;28;20472;-68
2023/09/03 12:05:20;;;;;;;3.33;1.00;;;32.30;1.00;;;;;;5001959;28;20475;-68
2023/09/03 12:07:47;;;;;;;3.20;1.00;;;32.10;1.00;;;;;;5004189;28;20514;-68
2023/09/03 12:10:19;;;;;;;4.17;1.13;;;32.00;1.00;;;;;;5002813;28;20472;-68
2023/09/03 12:12:45;;;;;;;4.30;1.20;;;31.90;1.00;;;;;;5004023;28;20468;-68
2023/09/03 12:15:20;;;;;;;3.10;0.90;;;31.80;1.00;;;;;;5001696;28;20480;-68
2023/09/03 12:17:48;;;;;;;3.33;1.20;;;31.80;1.00;;;;;;5002405;28;20471;-68
2023/09/03 12:20:33;;;;;;;4.50;1.60;;;31.70;1.00;;;;;;5001633;28;20459;-67
2023/09/03 12:23:10;;;;;;;4.17;1.20;;;31.60;1.00;;;;;;5000782;28;21058;-68
2023/09/03 12:25:38;;;;;;;3.13;1.20;;;31.50;1.00;;;;;;5002125;28;20472;-66
2023/09/03 12:28:06;;;;;;;3.77;1.10;;;31.30;1.00;;;;;;5006628;28;20471;-66
2023/09/03 12:30:58;;;;;;;3.57;1.13;;;31.00;1.00;;;;;;4995742;28;20961;-66
2023/09/03 12:33:28;;;;;;;4.00;1.40;;;30.90;1.00;;;;;;5006030;28;20488;-66
2023/09/03 12:36:08;;;;;;;3.33;1.10;;;30.70;1.00;;;;;;5004306;28;20874;-66
2023/09/03 12:38:57;;;;;;;3.10;1.17;;;30.40;1.00;;;;;;5005016;28;20471;-66
2023/09/03 12:41:26;;;;;;;3.63;1.23;;;30.20;1.00;;;;;;5004967;28;20463;-66
2023/09/03 12:43:54;;;;;;;4.13;1.37;;;29.90;1.00;;;;;;5008932;28;20511;-66
2023/09/03 12:46:21;;;;;;;4.40;1.60;;;29.90;1.00;;;;;;5005307;28;20967;-66
2023/09/03 12:48:49;;;;;;;4.53;1.53;;;29.90;1.00;;;;;;5005680;28;20828;-66
2023/09/03 12:51:17;;;;;;;3.60;1.27;;;29.90;1.00;;;;;;5010026;28;20464;-66
2023/09/03 12:53:45;;;;;;;3.20;1.20;;;29.90;1.00;;;;;;5009858;28;20479;-66
2023/09/03 12:56:12;;;;;;;3.90;1.27;;;30.00;1.00;;;;;;5007906;28;20487;-66
2023/09/03 12:58:39;;;;;;;3.30;1.00;;;30.00;1.00;;;;;;5004237;28;20464;-66
2023/09/03 13:01:07;;;;;;;5.87;1.20;;;30.00;1.00;;;;;;5004885;28;20483;-67